Time,TemperatureF,DewpointF,PressureIn,WindDirection,WindDirectionDegrees,WindSpeedMPH,WindSpeedGustMPH,Humidity,HourlyPrecipIn,Conditions,Clouds,dailyrainin,SoftwareType,DateUTC
2013-04-12 00:00:00,25.9,14.6,28.26,East,85,5.8,8.1,62,0.00,CLR,OVC,0.00,WeatherDisplay:10.37,2013-04-12 04:00:00,
2013-04-12 00:05:00,25.9,15.0,28.23,ESE,104,3.6,5.8,63,0.00,CLR,OVC,0.00,WeatherDisplay:10.37,2013-04-12 04:05:00,
2013-04-12 00:10:00,25.9,15.7,28.23,East,84,5.8,8.1,65,0.00,CLR,OVC,0.00,WeatherDisplay:10.37,2013-04-12 04:10:00,
2013-04-12 00:15:00,25.9,16.1,28.23,ESE,123,4.9,8.1,66,0.00,CLR,OVC,0.00,WeatherDisplay:10.37,2013-04-12 04:15:00,
2013-04-12 00:20:00,26.1,16.9,28.23,NE,53,3.6,5.8,68,0.00,CLR,OVC,0.00,WeatherDisplay:10.37,2013-04-12 04:20:00,
2013-04-12 00:25:00,26.1,17.3,28.23,ESE,121,5.8,5.8,69,0.00,CLR,OVC,0.00,WeatherDisplay:10.37,2013-04-12 04:25:00,
2013-04-12 00:30:00,26.1,17.9,28.23,NE,36,4.9,6.9,71,0.00,CLR,OVC,0.00,WeatherDisplay:10.37,2013-04-12 04:30:00,
2013-04-12 00:35:00,26.1,18.3,28.23,East,87,3.6,5.8,72,0.00,CLR,OVC,0.00,WeatherDisplay:10.37,2013-04-12 04:35:00,
2013-04-12 00:40:00,26.1,18.6,28.23,ENE,63,4.9,5.8,73,0.00,CLR,OVC,0.00,WeatherDisplay:10.37,2013-04-12 04:40:00,
2013-04-12 00:45:00,26.1,18.6,28.23,ENE,63,4.9,5.8,73,0.00,CLR,OVC,0.00,WeatherDisplay:10.37,2013-04-12 04:45:00,
2013-04-12 00:50:00,26.2,18.4,28.23,ENE,63,4.9,5.8,72,0.00,CLR,OVC,0.00,WeatherDisplay:10.37,2013-04-12 04:50:00,
2013-04-12 00:55:00,26.2,18.8,28.23,NNE,26,4.9,5.8,73,0.00,CLR,OVC,0.00,WeatherDisplay:10.37,2013-04-12 04:55:00,
2013-04-12 01:00:00,26.4,19.6,28.23,SE,130,5.4,5.8,75,0.00,CLR,OVC,0.00,WeatherDisplay:10.37,2013-04-12 05:00:00,
2013-04-12 01:05:00,26.6,19.7,28.23,ENE,72,3.6,5.8,75,0.00,CLR,OVC,0.00,WeatherDisplay:10.37,2013-04-12 05:05:00,
2013-04-12 01:10:00,26.6,20.1,28.23,ENE,64,5.8,5.8,76,0.00,CLR,OVC,0.00,WeatherDisplay:10.37,2013-04-12 05:10:00,
2013-04-12 01:15:00,26.6,20.1,28.23,ENE,75,0.0,5.8,76,0.00,CLR,OVC,0.00,WeatherDisplay:10.37,2013-04-12 05:15:00,
2013-04-12 01:20:00,26.6,20.1,28.23,East,84,8.7,8.7,76,0.00,CLR,OVC,0.00,WeatherDisplay:10.37,2013-04-12 05:20:00,
2013-04-12 01:25:00,26.6,19.7,28.23,ENE,74,5.4,5.8,75,0.00,CLR,OVC,0.00,WeatherDisplay:10.37,2013-04-12 05:25:00,
2013-04-12 01:30:00,26.4,19.9,28.23,ENE,71,3.1,4.0,76,0.00,CLR,OVC,0.00,WeatherDisplay:10.37,2013-04-12 05:30:00,
2013-04-12 01:35:00,26.4,19.9,28.23,East,92,5.8,5.8,76,0.00,CLR,OVC,0.00,WeatherDisplay:10.37,2013-04-12 05:35:00,
2013-04-12 01:40:00,26.4,19.9,28.23,NNE,29,3.1,5.8,76,0.00,CLR,OVC,0.00,WeatherDisplay:10.37,2013-04-12 05:40:00,
2013-04-12 01:45:00,26.4,19.9,28.23,East,82,4.0,5.8,76,0.00,CLR,OVC,0.00,WeatherDisplay:10.37,2013-04-12 05:45:00,
2013-04-12 01:50:00,26.4,19.9,28.23,ENE,71,4.5,6.9,76,0.00,CLR,OVC,0.00,WeatherDisplay:10.37,2013-04-12 05:50:00,
2013-04-12 01:55:00,26.4,19.9,28.23,East,87,3.6,3.6,76,0.00,CLR,OVC,0.00,WeatherDisplay:10.37,2013-04-12 05:55:00,
2013-04-12 02:00:00,26.4,19.9,28.23,NNE,16,4.9,5.8,76,0.00,CLR,OVC,0.00,WeatherDisplay:10.37,2013-04-12 06:00:00,
2013-04-12 02:05:00,26.4,19.9,28.23,ENE,69,2.2,3.6,76,0.00,CLR,OVC,0.00,WeatherDisplay:10.37,2013-04-12 06:05:00,
2013-04-12 02:10:00,26.6,20.4,28.23,North,357,4.5,6.9,77,0.00,CLR,OVC,0.00,WeatherDisplay:10.37,2013-04-12 06:10:00,
2013-04-12 02:15:00,26.6,20.4,28.23,ESE,109,4.0,10.4,77,0.00,CLR,OVC,0.00,WeatherDisplay:10.37,2013-04-12 06:15:00,
2013-04-12 02:20:00,26.4,20.2,28.23,NE,56,2.7,3.5,77,0.00,CLR,OVC,0.00,WeatherDisplay:10.37,2013-04-12 06:20:00,
2013-04-12 02:25:00,26.4,20.2,28.23,NNW,334,4.5,6.9,77,0.00,CLR,OVC,0.00,WeatherDisplay:10.37,2013-04-12 06:25:00,
2013-04-12 02:30:00,26.4,20.2,28.23,NE,43,3.1,5.8,77,0.00,CLR,OVC,0.00,WeatherDisplay:10.37,2013-04-12 06:30:00,
2013-04-12 02:35:00,26.2,20.0,28.23,East,88,4.5,5.8,77,0.00,CLR,OVC,0.00,WeatherDisplay:10.37,2013-04-12 06:35:00,
2013-04-12 02:40:00,26.4,20.2,28.23,NE,54,2.2,3.5,77,0.00,CLR,OVC,0.00,WeatherDisplay:10.37,2013-04-12 06:40:00,
2013-04-12 02:45:00,26.2,20.0,28.23,ENE,76,4.5,5.8,77,0.00,CLR,OVC,0.00,WeatherDisplay:10.37,2013-04-12 06:45:00,
2013-04-12 02:50:00,26.4,20.2,28.23,East,95,2.2,7.6,77,0.00,CLR,OVC,0.00,WeatherDisplay:10.37,2013-04-12 06:50:00,
2013-04-12 02:55:00,26.4,20.2,28.23,ENE,78,5.4,6.9,77,0.00,CLR,OVC,0.00,WeatherDisplay:10.37,2013-04-12 06:55:00,
2013-04-12 03:00:00,26.4,20.2,28.23,East,83,4.5,5.8,77,0.00,CLR,OVC,0.00,WeatherDisplay:10.37,2013-04-12 07:00:00,
2013-04-12 03:05:00,26.4,20.2,28.20,East,89,5.8,9.2,77,0.00,CLR,OVC,0.00,WeatherDisplay:10.37,2013-04-12 07:05:00,
2013-04-12 03:10:00,26.2,20.0,28.20,NE,49,5.4,5.8,77,0.00,CLR,OVC,0.00,WeatherDisplay:10.37,2013-04-12 07:10:00,
2013-04-12 03:15:00,26.2,20.0,28.20,NE,42,3.6,8.1,77,0.00,CLR,OVC,0.00,WeatherDisplay:10.37,2013-04-12 07:15:00,
2013-04-12 03:20:00,26.2,20.0,28.20,ENE,68,6.7,10.4,77,0.00,CLR,OVC,0.00,WeatherDisplay:10.37,2013-04-12 07:20:00,
2013-04-12 03:25:00,26.2,20.0,28.20,East,85,4.9,9.2,77,0.00,CLR,OVC,0.00,WeatherDisplay:10.37,2013-04-12 07:25:00,
2013-04-12 03:30:00,26.2,20.0,28.20,NE,51,4.9,5.8,77,0.00,CLR,OVC,0.00,WeatherDisplay:10.37,2013-04-12 07:30:00,
2013-04-12 03:35:00,26.2,20.3,28.17,ENE,72,5.8,5.8,78,0.00,CLR,OVC,0.00,WeatherDisplay:10.37,2013-04-12 07:35:00,
2013-04-12 03:40:00,26.2,20.0,28.17,NE,52,6.3,10.4,77,0.00,CLR,OVC,0.00,WeatherDisplay:10.37,2013-04-12 07:40:00,
2013-04-12 03:45:00,26.1,19.8,28.17,East,79,2.7,3.5,77,0.00,CLR,OVC,0.00,WeatherDisplay:10.37,2013-04-12 07:45:00,
2013-04-12 03:50:00,26.1,19.5,28.20,NE,44,3.6,5.8,76,0.00,CLR,OVC,0.00,WeatherDisplay:10.37,2013-04-12 07:50:00,
2013-04-12 03:55:00,26.1,19.5,28.20,NE,49,3.6,5.8,76,0.00,CLR,OVC,0.00,WeatherDisplay:10.37,2013-04-12 07:55:00,
2013-04-12 04:00:00,26.1,19.5,28.20,ESE,107,4.5,9.2,76,0.00,CLR,OVC,0.00,WeatherDisplay:10.37,2013-04-12 08:00:00,
2013-04-12 04:05:00,26.1,18.9,28.20,ESE,105,0.0,3.5,74,0.00,CLR,OVC,0.00,WeatherDisplay:10.37,2013-04-12 08:05:00,
2013-04-12 04:10:00,25.9,18.1,28.20,SE,140,3.6,5.8,72,0.00,CLR,OVC,0.00,WeatherDisplay:10.37,2013-04-12 08:10:00,
2013-04-12 04:15:00,25.9,18.1,28.20,NE,35,4.9,6.9,72,0.00,CLR,OVC,0.00,WeatherDisplay:10.37,2013-04-12 08:15:00,
2013-04-12 04:20:00,25.9,18.7,28.20,East,82,3.1,4.6,74,0.00,CLR,OVC,0.00,WeatherDisplay:10.37,2013-04-12 08:20:00,
2013-04-12 04:25:00,25.9,18.7,28.20,NNE,31,4.0,5.8,74,0.00,CLR,OVC,0.00,WeatherDisplay:10.37,2013-04-12 08:25:00,
2013-04-12 04:30:00,25.9,18.7,28.20,East,80,0.0,2.7,74,0.00,CLR,OVC,0.00,WeatherDisplay:10.37,2013-04-12 08:30:00,
2013-04-12 04:35:00,25.9,18.7,28.20,ENE,61,4.5,5.8,74,0.00,CLR,OVC,0.00,WeatherDisplay:10.37,2013-04-12 08:35:00,
2013-04-12 04:40:00,26.1,18.9,28.20,East,93,3.6,5.8,74,0.00,CLR,OVC,0.00,WeatherDisplay:10.37,2013-04-12 08:40:00,
2013-04-12 04:45:00,25.9,18.4,28.20,ENE,68,7.6,10.4,73,0.00,CLR,OVC,0.00,WeatherDisplay:10.37,2013-04-12 08:45:00,
2013-04-12 04:50:00,25.9,18.4,28.20,East,87,4.5,5.8,73,0.00,CLR,OVC,0.00,WeatherDisplay:10.37,2013-04-12 08:50:00,
2013-04-12 04:55:00,25.9,18.7,28.20,East,98,3.1,5.8,74,0.00,CLR,OVC,0.00,WeatherDisplay:10.37,2013-04-12 08:55:00,
2013-04-12 05:00:00,25.9,19.0,28.20,ENE,58,3.1,8.1,75,0.00,CLR,OVC,0.00,WeatherDisplay:10.37,2013-04-12 09:00:00,
2013-04-12 05:05:00,25.9,18.7,28.20,ENE,63,4.9,4.9,74,0.00,CLR,OVC,0.00,WeatherDisplay:10.37,2013-04-12 09:05:00,
2013-04-12 05:10:00,25.9,19.0,28.20,ENE,73,2.7,3.5,75,0.00,CLR,OVC,0.00,WeatherDisplay:10.37,2013-04-12 09:10:00,
2013-04-12 05:15:00,25.9,19.0,28.20,NE,56,3.6,5.8,75,0.00,CLR,OVC,0.00,WeatherDisplay:10.37,2013-04-12 09:15:00,
2013-04-12 05:20:00,26.1,19.2,28.17,East,96,2.7,3.5,75,0.00,CLR,OVC,0.00,WeatherDisplay:10.37,2013-04-12 09:20:00,
2013-04-12 05:25:00,26.1,19.2,28.17,ENE,76,4.5,5.8,75,0.00,CLR,OVC,0.00,WeatherDisplay:10.37,2013-04-12 09:25:00,
2013-04-12 05:30:00,26.1,19.2,28.17,North,357,2.7,4.6,75,0.00,CLR,OVC,0.00,WeatherDisplay:10.37,2013-04-12 09:30:00,
2013-04-12 05:35:00,26.1,19.2,28.17,North,5,3.1,5.8,75,0.00,CLR,OVC,0.00,WeatherDisplay:10.37,2013-04-12 09:35:00,
2013-04-12 05:40:00,25.9,18.4,28.17,ESE,116,4.5,9.2,73,0.00,CLR,OVC,0.00,WeatherDisplay:10.37,2013-04-12 09:40:00,
2013-04-12 05:45:00,25.7,18.2,28.17,NE,56,3.6,8.1,73,0.00,CLR,OVC,0.00,WeatherDisplay:10.37,2013-04-12 09:45:00,
2013-04-12 05:50:00,25.5,17.7,28.17,NE,56,2.2,6.9,72,0.00,CLR,OVC,0.00,WeatherDisplay:10.37,2013-04-12 09:50:00,
2013-04-12 05:55:00,25.3,17.2,28.17,ENE,68,2.2,3.5,71,0.00,CLR,OVC,0.00,WeatherDisplay:10.37,2013-04-12 09:55:00,
2013-04-12 06:00:00,25.3,17.2,28.17,NE,47,3.6,3.6,71,0.00,CLR,OVC,0.00,WeatherDisplay:10.37,2013-04-12 10:00:00,
2013-04-12 06:05:00,25.3,17.2,28.17,East,92,3.6,6.9,71,0.00,CLR,OVC,0.00,WeatherDisplay:10.37,2013-04-12 10:05:00,
2013-04-12 06:10:00,25.3,17.2,28.17,NE,52,5.8,9.2,71,0.00,CLR,OVC,0.00,WeatherDisplay:10.37,2013-04-12 10:10:00,
2013-04-12 06:15:00,25.3,16.9,28.17,NNE,27,0.0,5.8,70,0.00,CLR,OVC,0.00,WeatherDisplay:10.37,2013-04-12 10:15:00,
2013-04-12 06:20:00,25.3,17.2,28.17,NE,55,4.9,5.8,71,0.00,CLR,OVC,0.00,WeatherDisplay:10.37,2013-04-12 10:20:00,
2013-04-12 06:25:00,25.3,17.6,28.17,ENE,74,3.1,3.5,72,0.00,CLR,OVC,0.00,WeatherDisplay:10.37,2013-04-12 10:25:00,
2013-04-12 06:30:00,25.3,17.2,28.17,East,98,4.0,8.1,71,0.00,CLR,OVC,0.00,WeatherDisplay:10.37,2013-04-12 10:30:00,
2013-04-12 06:35:00,25.3,17.6,28.17,North,353,5.8,8.1,72,0.00,CLR,OVC,0.00,WeatherDisplay:10.37,2013-04-12 10:35:00,
2013-04-12 06:40:00,25.3,17.6,28.17,ENE,58,4.9,8.1,72,0.00,CLR,OVC,0.00,WeatherDisplay:10.37,2013-04-12 10:40:00,
2013-04-12 06:45:00,25.3,17.6,28.17,ENE,60,6.7,8.1,72,0.00,CLR,OVC,0.00,WeatherDisplay:10.37,2013-04-12 10:45:00,
2013-04-12 06:50:00,25.2,17.1,28.17,East,90,6.3,8.7,71,0.00,CLR,OVC,0.00,WeatherDisplay:10.37,2013-04-12 10:50:00,
2013-04-12 06:55:00,25.2,16.1,28.17,North,349,5.4,5.8,68,0.00,CLR,OVC,0.00,WeatherDisplay:10.37,2013-04-12 10:55:00,
2013-04-12 07:00:00,25.2,16.1,28.17,ENE,64,6.7,12.7,68,0.00,CLR,OVC,0.00,WeatherDisplay:10.37,2013-04-12 11:00:00,
2013-04-12 07:05:00,25.2,15.7,28.14,East,89,2.7,4.6,67,0.00,CLR,OVC,0.00,WeatherDisplay:10.37,2013-04-12 11:05:00,
2013-04-12 07:10:00,25.2,16.1,28.14,ENE,58,5.4,5.8,68,0.00,CLR,OVC,0.00,WeatherDisplay:10.37,2013-04-12 11:10:00,
2013-04-12 07:15:00,25.2,16.7,28.14,NNE,12,3.6,8.1,70,0.00,CLR,OVC,0.00,WeatherDisplay:10.37,2013-04-12 11:15:00,
2013-04-12 07:20:00,25.2,17.1,28.14,NE,43,3.1,8.7,71,0.00,CLR,OVC,0.00,WeatherDisplay:10.37,2013-04-12 11:20:00,
2013-04-12 07:25:00,25.3,17.2,28.14,NNE,28,5.8,10.4,71,0.00,CLR,OVC,0.00,WeatherDisplay:10.37,2013-04-12 11:25:00,
2013-04-12 07:30:00,25.3,16.6,28.14,ENE,76,6.3,11.5,69,0.00,CLR,OVC,0.00,WeatherDisplay:10.37,2013-04-12 11:30:00,
2013-04-12 07:35:00,25.3,16.6,28.14,NE,56,4.0,12.7,69,0.00,CLR,OVC,0.00,WeatherDisplay:10.37,2013-04-12 11:35:00,
2013-04-12 07:40:00,25.3,15.9,28.14,North,357,4.5,5.8,67,0.00,CLR,OVC,0.00,WeatherDisplay:10.37,2013-04-12 11:40:00,
2013-04-12 07:45:00,25.2,15.4,28.14,East,85,6.3,10.4,66,0.00,CLR,OVC,0.00,WeatherDisplay:10.37,2013-04-12 11:45:00,
2013-04-12 07:50:00,25.2,15.4,28.14,NE,42,6.3,11.5,66,0.00,CLR,OVC,0.00,WeatherDisplay:10.37,2013-04-12 11:50:00,
2013-04-12 07:55:00,25.2,15.4,28.14,NNE,22,3.1,4.6,66,0.00,CLR,OVC,0.00,WeatherDisplay:10.37,2013-04-12 11:55:00,
2013-04-12 08:00:00,25.2,15.4,28.14,ESE,106,5.4,8.1,66,0.00,CLR,OVC,0.00,WeatherDisplay:10.37,2013-04-12 12:00:00,
2013-04-12 08:05:00,25.2,14.7,28.14,ENE,76,4.5,8.0,64,0.00,CLR,OVC,0.00,WeatherDisplay:10.37,2013-04-12 12:05:00,
2013-04-12 08:10:00,25.2,14.3,28.14,ESE,109,0.0,5.8,63,0.00,CLR,OVC,0.00,WeatherDisplay:10.37,2013-04-12 12:10:00,
2013-04-12 08:15:00,25.3,14.5,28.14,NE,42,2.7,4.6,63,0.00,CLR,OVC,0.00,WeatherDisplay:10.37,2013-04-12 12:15:00,
2013-04-12 08:20:00,25.5,14.7,28.14,North,6,4.0,8.1,63,0.00,CLR,OVC,0.00,WeatherDisplay:10.37,2013-04-12 12:20:00,
2013-04-12 08:25:00,25.7,15.2,28.14,NE,34,4.5,5.8,64,0.00,CLR,OVC,0.00,WeatherDisplay:10.37,2013-04-12 12:25:00,
2013-04-12 08:30:00,25.7,14.8,28.14,NNE,25,5.4,8.1,63,0.00,CLR,OVC,0.00,WeatherDisplay:10.37,2013-04-12 12:30:00,
2013-04-12 08:35:00,25.7,14.5,28.14,NNE,20,5.8,8.1,62,0.00,CLR,OVC,0.00,WeatherDisplay:10.37,2013-04-12 12:35:00,
2013-04-12 08:40:00,25.7,13.7,28.14,North,9,6.7,8.1,60,0.00,CLR,OVC,0.00,WeatherDisplay:10.37,2013-04-12 12:40:00,
2013-04-12 08:45:00,25.7,13.3,28.14,East,100,4.5,5.8,59,0.00,CLR,OVC,0.00,WeatherDisplay:10.37,2013-04-12 12:45:00,
2013-04-12 08:50:00,25.5,12.8,28.14,ESE,110,9.6,12.7,58,0.00,CLR,OVC,0.00,WeatherDisplay:10.37,2013-04-12 12:50:00,
2013-04-12 08:55:00,25.5,12.8,28.14,ENE,64,4.0,8.1,58,0.00,CLR,OVC,0.00,WeatherDisplay:10.37,2013-04-12 12:55:00,
2013-04-12 09:00:00,25.7,12.9,28.14,East,81,4.5,5.8,58,0.00,CLR,OVC,0.00,WeatherDisplay:10.37,2013-04-12 13:00:00,
2013-04-12 09:05:00,25.9,13.1,28.14,East,82,2.7,8.1,58,0.00,CLR,OVC,0.00,WeatherDisplay:10.37,2013-04-12 13:05:00,
2013-04-12 09:10:00,25.9,13.5,28.14,NE,39,2.7,4.0,59,0.00,CLR,OVC,0.00,WeatherDisplay:10.37,2013-04-12 13:10:00,
2013-04-12 09:15:00,25.9,13.5,28.14,ENE,70,4.9,5.8,59,0.00,CLR,OVC,0.00,WeatherDisplay:10.37,2013-04-12 13:15:00,
2013-04-12 09:20:00,25.9,13.1,28.14,NNE,33,7.2,8.1,58,0.00,CLR,OVC,0.00,WeatherDisplay:10.37,2013-04-12 13:20:00,
2013-04-12 09:25:00,25.9,13.1,28.14,NNE,25,3.1,5.8,58,0.00,CLR,OVC,0.00,WeatherDisplay:10.37,2013-04-12 13:25:00,
2013-04-12 09:30:00,26.1,13.3,28.14,ENE,61,4.0,4.0,58,0.00,CLR,OVC,0.00,WeatherDisplay:10.37,2013-04-12 13:30:00,
2013-04-12 09:35:00,26.1,12.9,28.14,ENE,78,3.6,6.9,57,0.00,CLR,OVC,0.00,WeatherDisplay:10.37,2013-04-12 13:35:00,
2013-04-12 09:40:00,26.2,13.1,28.14,NE,48,4.9,8.1,57,0.00,CLR,OVC,0.00,WeatherDisplay:10.37,2013-04-12 13:40:00,
2013-04-12 09:45:00,26.4,13.6,28.14,ENE,78,0.0,0.0,58,0.00,CLR,OVC,0.00,WeatherDisplay:10.37,2013-04-12 13:45:00,
2013-04-12 09:50:00,26.6,13.4,28.14,ENE,74,3.6,5.8,57,0.00,CLR,OVC,0.00,WeatherDisplay:10.37,2013-04-12 13:50:00,
2013-04-12 09:55:00,27.1,13.9,28.14,East,90,3.1,3.6,57,0.00,CLR,OVC,0.00,WeatherDisplay:10.37,2013-04-12 13:55:00,
2013-04-12 10:00:00,27.0,13.3,28.14,ENE,70,3.1,5.8,56,0.00,CLR,OVC,0.00,WeatherDisplay:10.37,2013-04-12 14:00:00,
2013-04-12 10:05:00,27.0,12.9,28.14,ESE,122,2.2,3.5,55,0.00,CLR,OVC,0.00,WeatherDisplay:10.37,2013-04-12 14:05:00,
2013-04-12 10:10:00,27.1,13.1,28.14,East,98,3.1,8.1,55,0.00,CLR,OVC,0.00,WeatherDisplay:10.37,2013-04-12 14:10:00,
2013-04-12 10:15:00,27.1,13.1,28.14,NE,48,4.0,5.8,55,0.00,CLR,OVC,0.00,WeatherDisplay:10.37,2013-04-12 14:15:00,
2013-04-12 10:20:00,27.1,13.5,28.11,NE,39,2.2,3.5,56,0.00,CLR,OVC,0.00,WeatherDisplay:10.37,2013-04-12 14:20:00,
2013-04-12 10:25:00,27.5,13.8,28.11,NNE,12,2.2,5.8,56,0.00,CLR,OVC,0.00,WeatherDisplay:10.37,2013-04-12 14:25:00,
2013-04-12 10:30:00,27.5,13.0,28.11,NNE,31,4.0,5.8,54,0.00,CLR,OVC,0.00,WeatherDisplay:10.37,2013-04-12 14:30:00,
2013-04-12 10:35:00,27.3,12.4,28.11,NE,34,3.1,4.6,53,0.00,CLR,OVC,0.00,WeatherDisplay:10.37,2013-04-12 14:35:00,
2013-04-12 10:40:00,28.2,14.1,28.11,NE,50,2.7,3.6,55,0.00,CLR,OVC,0.00,WeatherDisplay:10.37,2013-04-12 14:40:00,
2013-04-12 10:45:00,28.0,12.7,28.11,ENE,57,3.1,5.8,52,0.00,CLR,OVC,0.00,WeatherDisplay:10.37,2013-04-12 14:45:00,
2013-04-12 10:50:00,28.0,12.7,28.11,NE,52,4.9,5.8,52,0.00,CLR,OVC,0.00,WeatherDisplay:10.37,2013-04-12 14:50:00,
2013-04-12 10:55:00,27.9,12.5,28.11,NE,35,4.9,5.8,52,0.00,CLR,OVC,0.00,WeatherDisplay:10.37,2013-04-12 14:55:00,
2013-04-12 11:00:00,27.7,12.3,28.11,ENE,65,4.9,8.1,52,0.00,CLR,OVC,0.00,WeatherDisplay:10.37,2013-04-12 15:00:00,
2013-04-12 11:05:00,27.3,12.0,28.11,East,94,7.6,12.7,52,0.00,CLR,OVC,0.00,WeatherDisplay:10.37,2013-04-12 15:05:00,
2013-04-12 11:10:00,27.7,12.3,28.11,WSW,258,3.6,3.6,52,0.00,CLR,OVC,0.00,WeatherDisplay:10.37,2013-04-12 15:10:00,
2013-04-12 11:15:00,27.5,12.2,28.11,NNE,24,0.0,5.8,52,0.00,CLR,OVC,0.00,WeatherDisplay:10.37,2013-04-12 15:15:00,
2013-04-12 11:20:00,27.7,11.9,28.11,East,92,6.7,8.1,51,0.00,CLR,OVC,0.00,WeatherDisplay:10.37,2013-04-12 15:20:00,
2013-04-12 11:25:00,27.5,11.7,28.11,East,79,2.7,8.1,51,0.00,CLR,OVC,0.00,WeatherDisplay:10.37,2013-04-12 15:25:00,
2013-04-12 11:30:00,27.7,11.4,28.11,NE,41,3.6,7.6,50,0.00,CLR,OVC,0.00,WeatherDisplay:10.37,2013-04-12 15:30:00,
2013-04-12 11:35:00,27.7,11.9,28.11,NNE,22,4.9,7.6,51,0.00,CLR,OVC,0.00,WeatherDisplay:10.37,2013-04-12 15:35:00,
2013-04-12 11:40:00,27.7,11.4,28.11,NE,56,5.8,8.1,50,0.00,CLR,OVC,0.00,WeatherDisplay:10.37,2013-04-12 15:40:00,
2013-04-12 11:45:00,27.7,11.9,28.11,NE,41,5.8,8.1,51,0.00,CLR,OVC,0.00,WeatherDisplay:10.37,2013-04-12 15:45:00,
2013-04-12 11:50:00,27.9,11.6,28.11,NNE,18,4.5,5.8,50,0.00,CLR,OVC,0.00,WeatherDisplay:10.37,2013-04-12 15:50:00,
2013-04-12 11:55:00,28.0,11.3,28.11,ENE,77,4.5,5.8,49,0.00,CLR,OVC,0.00,WeatherDisplay:10.37,2013-04-12 15:55:00,
2013-04-12 12:00:00,28.0,10.8,28.11,ENE,74,4.9,8.1,48,0.00,CLR,OVC,0.00,WeatherDisplay:10.37,2013-04-12 16:00:00,
2013-04-12 12:05:00,28.0,9.4,28.11,NE,52,4.5,5.8,45,0.00,CLR,OVC,0.00,WeatherDisplay:10.37,2013-04-12 16:05:00,
2013-04-12 12:10:00,28.0,9.4,28.11,NE,44,4.0,10.4,45,0.00,CLR,OVC,0.00,WeatherDisplay:10.37,2013-04-12 16:10:00,
2013-04-12 12:15:00,28.8,10.1,28.11,East,83,3.1,8.1,45,0.00,CLR,OVC,0.00,WeatherDisplay:10.37,2013-04-12 16:15:00,
2013-04-12 12:20:00,29.3,10.1,28.11,NNE,22,4.9,5.8,44,0.00,CLR,OVC,0.00,WeatherDisplay:10.37,2013-04-12 16:20:00,
2013-04-12 12:25:00,30.2,10.9,28.11,NE,44,5.4,6.9,44,0.00,CLR,OVC,0.00,WeatherDisplay:10.37,2013-04-12 16:25:00,
2013-04-12 12:30:00,30.2,9.8,28.11,East,96,3.6,5.8,42,0.00,CLR,OVC,0.00,WeatherDisplay:10.37,2013-04-12 16:30:00,
2013-04-12 12:35:00,30.2,9.8,28.11,NNE,18,5.4,5.8,42,0.00,CLR,OVC,0.00,WeatherDisplay:10.37,2013-04-12 16:35:00,
2013-04-12 12:40:00,30.2,9.3,28.11,East,85,4.0,5.8,41,0.00,CLR,OVC,0.00,WeatherDisplay:10.37,2013-04-12 16:40:00,
2013-04-12 12:45:00,29.7,8.8,28.11,ESE,107,4.5,5.8,41,0.00,CLR,OVC,0.00,WeatherDisplay:10.37,2013-04-12 16:45:00,
2013-04-12 12:50:00,29.8,9.0,28.11,ESE,110,4.5,5.8,41,0.00,CLR,OVC,0.00,WeatherDisplay:10.37,2013-04-12 16:50:00,
2013-04-12 12:55:00,28.8,8.5,28.11,ESE,105,0.0,5.8,42,0.00,CLR,OVC,0.00,WeatherDisplay:10.37,2013-04-12 16:55:00,
2013-04-12 13:00:00,29.5,8.6,28.11,ESE,112,3.6,5.8,41,0.00,CLR,OVC,0.00,WeatherDisplay:10.37,2013-04-12 17:00:00,
2013-04-12 13:05:00,30.2,9.3,28.11,ENE,73,3.6,9.2,41,0.00,CLR,OVC,0.00,WeatherDisplay:10.37,2013-04-12 17:05:00,
2013-04-12 13:10:00,31.1,10.1,28.11,ESE,123,3.6,8.1,41,0.00,CLR,OVC,0.00,WeatherDisplay:10.37,2013-04-12 17:10:00,
2013-04-12 13:15:00,31.3,9.2,28.11,NNE,15,4.5,6.9,39,0.00,CLR,OVC,0.00,WeatherDisplay:10.37,2013-04-12 17:15:00,
2013-04-12 13:20:00,31.3,8.6,28.11,East,86,5.4,5.8,38,0.00,CLR,OVC,0.00,WeatherDisplay:10.37,2013-04-12 17:20:00,
2013-04-12 13:25:00,31.8,9.6,28.11,ENE,71,2.7,3.5,39,0.00,CLR,OVC,0.00,WeatherDisplay:10.37,2013-04-12 17:25:00,
2013-04-12 13:31:00,32.2,9.4,28.11,East,85,2.2,4.6,38,0.00,CLR,OVC,0.00,WeatherDisplay:10.37,2013-04-12 17:31:00,
2013-04-12 13:36:00,30.6,7.9,28.11,ESE,107,4.0,5.8,38,0.00,CLR,OVC,0.00,WeatherDisplay:10.37,2013-04-12 17:36:00,
2013-04-12 13:41:00,31.8,9.1,28.11,East,84,5.8,8.3,38,0.00,CLR,OVC,0.00,WeatherDisplay:10.37,2013-04-12 17:41:00,
2013-04-12 13:47:00,31.8,7.9,28.11,East,96,4.9,8.1,36,0.00,CLR,OVC,0.00,WeatherDisplay:10.37,2013-04-12 17:47:00,
2013-04-12 13:53:00,31.3,8.0,28.11,East,82,4.0,5.8,37,0.00,CLR,OVC,0.00,WeatherDisplay:10.37,2013-04-12 17:53:00,
2013-04-12 13:58:00,32.0,8.6,28.11,SE,128,4.5,5.8,37,0.00,CLR,OVC,0.00,WeatherDisplay:10.37,2013-04-12 17:58:00,
2013-04-12 14:04:00,32.0,8.0,28.11,ESE,108,4.5,8.1,36,0.00,CLR,OVC,0.00,WeatherDisplay:10.37,2013-04-12 18:04:00,
2013-04-12 14:09:00,31.8,7.9,28.11,NNW,331,4.0,8.1,36,0.00,CLR,OVC,0.00,WeatherDisplay:10.37,2013-04-12 18:09:00,
2013-04-12 14:14:00,30.6,6.7,28.11,ESE,118,4.5,8.1,36,0.00,CLR,OVC,0.00,WeatherDisplay:10.37,2013-04-12 18:14:00,
2013-04-12 14:19:00,30.2,7.0,28.08,SE,128,5.8,5.8,37,0.00,CLR,OVC,0.00,WeatherDisplay:10.37,2013-04-12 18:19:00,
2013-04-12 14:24:00,30.4,7.8,28.08,East,99,3.1,5.8,38,0.00,CLR,OVC,0.00,WeatherDisplay:10.37,2013-04-12 18:24:00,
2013-04-12 14:30:00,31.3,9.7,28.08,East,89,3.0,6.0,40,0.00,CLR,OVC,0.00,WeatherDisplay:10.37,2013-04-12 18:30:00,
2013-04-12 15:26:00,31.6,6.4,28.11,East,92,4.5,8.1,34,0.00,CLR,OVC,0.00,WeatherDisplay:10.37,2013-04-12 19:26:00,
2013-04-12 15:27:00,31.6,6.4,28.11,East,85,3.6,5.8,34,0.00,CLR,OVC,0.00,WeatherDisplay:10.37,2013-04-12 19:27:00,
2013-04-12 15:32:00,32.7,8.0,28.11,ENE,73,3.1,6.3,35,0.00,CLR,OVC,0.00,WeatherDisplay:10.37,2013-04-12 19:32:00,
2013-04-12 15:37:00,32.7,7.4,28.11,NE,35,3.1,4.6,34,0.00,CLR,OVC,0.00,WeatherDisplay:10.37,2013-04-12 19:37:00,
2013-04-12 15:42:00,32.7,8.0,28.11,ENE,60,3.1,5.8,35,0.00,CLR,OVC,0.00,WeatherDisplay:10.37,2013-04-12 19:42:00,
2013-04-12 15:47:00,32.9,8.2,28.11,East,95,2.7,4.6,35,0.00,CLR,OVC,0.00,WeatherDisplay:10.37,2013-04-12 19:47:00,
2013-04-12 15:52:00,32.5,7.9,28.11,ESE,109,2.7,5.8,35,0.00,CLR,OVC,0.00,WeatherDisplay:10.37,2013-04-12 19:52:00,
2013-04-12 15:57:00,32.4,7.7,28.11,North,2,2.7,3.5,35,0.00,CLR,OVC,0.00,WeatherDisplay:10.37,2013-04-12 19:57:00,
2013-04-12 16:02:00,32.5,8.5,28.11,NE,49,0.0,3.5,36,0.00,CLR,OVC,0.00,WeatherDisplay:10.37,2013-04-12 20:02:00,
2013-04-12 16:07:00,32.2,8.2,28.11,North,357,0.0,3.5,36,0.00,CLR,OVC,0.00,WeatherDisplay:10.37,2013-04-12 20:07:00,
2013-04-12 16:12:00,32.2,8.2,28.11,NE,35,3.6,3.6,36,0.00,CLR,OVC,0.00,WeatherDisplay:10.37,2013-04-12 20:12:00,
2013-04-12 16:17:00,32.4,8.9,28.11,NNE,22,0.0,3.5,37,0.00,CLR,OVC,0.00,WeatherDisplay:10.37,2013-04-12 20:17:00,
2013-04-12 16:22:00,32.7,8.7,28.11,NE,43,2.2,3.5,36,0.00,CLR,OVC,0.00,WeatherDisplay:10.37,2013-04-12 20:22:00,
2013-04-12 16:27:00,32.9,8.8,28.11,NNE,17,0.0,3.5,36,0.00,CLR,OVC,0.00,WeatherDisplay:10.37,2013-04-12 20:27:00,
2013-04-12 16:32:00,32.9,8.2,28.11,ENE,72,0.0,2.3,35,0.00,CLR,OVC,0.00,WeatherDisplay:10.37,2013-04-12 20:32:00,
2013-04-12 16:37:00,32.7,8.0,28.11,NE,52,0.0,2.3,35,0.00,CLR,OVC,0.00,WeatherDisplay:10.37,2013-04-12 20:37:00,
2013-04-12 16:42:00,32.5,8.5,28.11,NNE,29,4.0,4.6,36,0.00,CLR,OVC,0.00,WeatherDisplay:10.37,2013-04-12 20:42:00,
2013-04-12 16:47:00,32.4,8.3,28.11,ENE,61,2.7,4.9,36,0.00,CLR,OVC,0.00,WeatherDisplay:10.37,2013-04-12 20:47:00,
2013-04-12 16:52:00,31.8,7.9,28.11,East,91,4.0,4.6,36,0.00,CLR,OVC,0.00,WeatherDisplay:10.37,2013-04-12 20:52:00,
2013-04-12 16:58:00,32.2,9.4,28.11,ENE,75,0.0,2.3,38,0.00,CLR,OVC,0.00,WeatherDisplay:10.37,2013-04-12 20:58:00,
2013-04-12 17:03:00,32.7,9.3,28.11,East,89,0.0,3.5,37,0.00,CLR,OVC,0.00,WeatherDisplay:10.37,2013-04-12 21:03:00,
2013-04-12 17:08:00,32.9,8.8,28.11,NNE,13,2.2,2.3,36,0.00,CLR,OVC,0.00,WeatherDisplay:10.37,2013-04-12 21:08:00,
2013-04-12 17:13:00,32.7,8.7,28.11,ESE,102,3.1,3.5,36,0.00,CLR,OVC,0.00,WeatherDisplay:10.37,2013-04-12 21:13:00,
2013-04-12 17:18:00,32.4,8.3,28.11,NE,37,2.7,5.8,36,0.00,CLR,OVC,0.00,WeatherDisplay:10.37,2013-04-12 21:18:00,
2013-04-12 17:23:00,32.2,8.2,28.11,ENE,73,0.0,3.5,36,0.00,CLR,OVC,0.00,WeatherDisplay:10.37,2013-04-12 21:23:00,
2013-04-12 17:28:00,32.2,9.4,28.11,ENE,74,0.0,2.3,38,0.00,CLR,OVC,0.00,WeatherDisplay:10.37,2013-04-12 21:28:00,
2013-04-12 17:33:00,32.2,9.4,28.11,ENE,64,0.0,3.1,38,0.00,CLR,OVC,0.00,WeatherDisplay:10.37,2013-04-12 21:33:00,
2013-04-12 17:38:00,32.2,8.2,28.11,NE,42,3.1,4.6,36,0.00,CLR,OVC,0.00,WeatherDisplay:10.37,2013-04-12 21:38:00,
2013-04-12 17:43:00,32.4,8.9,28.11,ENE,60,2.7,2.7,37,0.00,CLR,OVC,0.00,WeatherDisplay:10.37,2013-04-12 21:43:00,
2013-04-12 17:48:00,32.4,9.5,28.11,NNW,327,0.0,3.5,38,0.00,CLR,OVC,0.00,WeatherDisplay:10.37,2013-04-12 21:48:00,
2013-04-12 17:53:00,32.2,9.4,28.11,NE,42,2.2,3.5,38,0.00,CLR,OVC,0.00,WeatherDisplay:10.37,2013-04-12 21:53:00,
2013-04-12 17:58:00,32.2,9.4,28.11,ESE,108,0.0,3.5,38,0.00,CLR,OVC,0.00,WeatherDisplay:10.37,2013-04-12 21:58:00,
2013-04-12 18:03:00,31.6,9.5,28.11,North,1,0.0,3.5,39,0.00,CLR,OVC,0.00,WeatherDisplay:10.37,2013-04-12 22:03:00,
2013-04-12 18:08:00,31.8,10.2,28.11,ENE,73,0.0,0.0,40,0.00,CLR,OVC,0.00,WeatherDisplay:10.37,2013-04-12 22:08:00,
2013-04-12 18:13:00,31.8,9.6,28.11,NE,40,0.0,3.5,39,0.00,CLR,OVC,0.00,WeatherDisplay:10.37,2013-04-12 22:13:00,
2013-04-12 18:18:00,31.6,9.5,28.11,ENE,63,0.0,4.0,39,0.00,CLR,OVC,0.00,WeatherDisplay:10.37,2013-04-12 22:18:00,
2013-04-12 18:23:00,31.5,9.9,28.11,NNW,342,3.6,5.8,40,0.00,CLR,OVC,0.00,WeatherDisplay:10.37,2013-04-12 22:23:00,
2013-04-12 18:28:00,31.3,9.7,28.11,NNW,342,0.0,3.5,40,0.00,CLR,OVC,0.00,WeatherDisplay:10.37,2013-04-12 22:28:00,
2013-04-12 18:33:00,31.5,10.4,28.11,NE,42,2.2,3.5,41,0.00,CLR,OVC,0.00,WeatherDisplay:10.37,2013-04-12 22:33:00,
2013-04-12 18:38:00,31.5,10.4,28.11,NNE,15,0.0,0.0,41,0.00,CLR,OVC,0.00,WeatherDisplay:10.37,2013-04-12 22:38:00,
2013-04-12 18:43:00,31.6,10.6,28.11,NW,304,0.0,3.5,41,0.00,CLR,OVC,0.00,WeatherDisplay:10.37,2013-04-12 22:43:00,
2013-04-12 18:48:00,31.8,10.8,28.11,North,9,0.0,3.5,41,0.00,CLR,OVC,0.00,WeatherDisplay:10.37,2013-04-12 22:48:00,
2013-04-12 18:53:00,32.0,11.5,28.11,NE,56,0.0,2.3,42,0.00,CLR,OVC,0.00,WeatherDisplay:10.37,2013-04-12 22:53:00,
2013-04-12 18:58:00,32.0,11.5,28.11,ENE,61,0.0,0.0,42,0.00,CLR,OVC,0.00,WeatherDisplay:10.37,2013-04-12 22:58:00,
2013-04-12 19:03:00,32.2,11.6,28.11,NW,326,2.2,3.5,42,0.00,CLR,OVC,0.00,WeatherDisplay:10.37,2013-04-12 23:03:00,
2013-04-12 19:08:00,31.8,10.8,28.11,NW,317,2.7,3.5,41,0.00,CLR,OVC,0.00,WeatherDisplay:10.37,2013-04-12 23:08:00,
2013-04-12 19:13:00,31.3,10.8,28.11,NW,322,0.0,3.1,42,0.00,CLR,OVC,0.00,WeatherDisplay:10.37,2013-04-12 23:13:00,
2013-04-12 19:18:00,31.3,10.8,28.14,NW,322,0.0,0.0,42,0.00,CLR,OVC,0.00,WeatherDisplay:10.37,2013-04-12 23:18:00,
2013-04-12 19:23:00,31.5,11.0,28.14,NNE,21,0.0,3.5,42,0.00,CLR,OVC,0.00,WeatherDisplay:10.37,2013-04-12 23:23:00,
2013-04-12 19:28:00,31.3,10.8,28.14,ENE,66,0.0,0.0,42,0.00,CLR,OVC,0.00,WeatherDisplay:10.37,2013-04-12 23:28:00,
2013-04-12 19:33:00,31.1,10.6,28.14,NW,323,0.0,0.0,42,0.00,CLR,OVC,0.00,WeatherDisplay:10.37,2013-04-12 23:33:00,
2013-04-12 19:38:00,30.6,10.2,28.14,ENE,77,0.0,2.7,42,0.00,CLR,OVC,0.00,WeatherDisplay:10.37,2013-04-12 23:38:00,
2013-04-12 19:43:00,29.8,10.0,28.14,NNE,14,0.0,0.0,43,0.00,CLR,OVC,0.00,WeatherDisplay:10.37,2013-04-12 23:43:00,
2013-04-12 19:48:00,29.5,9.7,28.14,NNE,18,3.6,4.6,43,0.00,CLR,OVC,0.00,WeatherDisplay:10.37,2013-04-12 23:48:00,
2013-04-12 19:53:00,28.9,9.7,28.14,NE,46,0.0,0.0,44,0.00,CLR,OVC,0.00,WeatherDisplay:10.37,2013-04-12 23:53:00,
2013-04-12 19:58:00,28.8,9.6,28.14,ENE,71,0.0,3.5,44,0.00,CLR,OVC,0.00,WeatherDisplay:10.37,2013-04-12 23:58:00,
2013-04-12 20:03:00,28.6,9.4,28.14,NE,55,0.0,0.0,44,0.00,CLR,OVC,0.00,WeatherDisplay:10.37,2013-04-13 00:03:00,
2013-04-12 20:08:00,28.6,9.9,28.14,NNW,332,0.0,3.5,45,0.00,CLR,OVC,0.00,WeatherDisplay:10.37,2013-04-13 00:08:00,
2013-04-12 20:13:00,28.2,9.6,28.14,NNW,329,0.0,0.0,45,0.00,CLR,OVC,0.00,WeatherDisplay:10.37,2013-04-13 00:13:00,
2013-04-12 20:18:00,28.0,8.9,28.14,NNW,329,0.0,0.0,44,0.00,CLR,OVC,0.00,WeatherDisplay:10.37,2013-04-13 00:18:00,
2013-04-12 20:23:00,27.9,8.7,28.14,NNW,329,0.0,0.0,44,0.00,CLR,OVC,0.00,WeatherDisplay:10.37,2013-04-13 00:23:00,
2013-04-12 20:28:00,27.9,9.2,28.14,NNW,329,0.0,0.0,45,0.00,CLR,OVC,0.00,WeatherDisplay:10.37,2013-04-13 00:28:00,
2013-04-12 20:33:00,27.7,9.1,28.14,NNW,329,0.0,0.0,45,0.00,CLR,OVC,0.00,WeatherDisplay:10.37,2013-04-13 00:33:00,
2013-04-12 20:38:00,27.5,9.4,28.14,NNW,329,0.0,2.3,46,0.00,CLR,OVC,0.00,WeatherDisplay:10.37,2013-04-13 00:38:00,
2013-04-12 20:43:00,27.3,9.7,28.14,NNW,329,0.0,0.0,47,0.00,CLR,OVC,0.00,WeatherDisplay:10.37,2013-04-13 00:43:00,
2013-04-12 20:48:00,27.3,9.7,28.14,NNW,329,0.0,0.0,47,0.00,CLR,OVC,0.00,WeatherDisplay:10.37,2013-04-13 00:48:00,
2013-04-12 20:53:00,27.1,9.5,28.14,NNW,329,0.0,0.0,47,0.00,CLR,OVC,0.00,WeatherDisplay:10.37,2013-04-13 00:53:00,
2013-04-12 20:58:00,27.0,9.9,28.14,NNW,329,0.0,0.0,48,0.00,CLR,OVC,0.00,WeatherDisplay:10.37,2013-04-13 00:58:00,
2013-04-12 21:03:00,27.0,9.9,28.14,NNW,329,0.0,0.0,48,0.00,CLR,OVC,0.00,WeatherDisplay:10.37,2013-04-13 01:03:00,
2013-04-12 21:08:00,26.8,9.7,28.14,NNW,329,0.0,0.0,48,0.00,CLR,OVC,0.00,WeatherDisplay:10.37,2013-04-13 01:08:00,
2013-04-12 21:13:00,26.6,9.5,28.14,NNW,329,0.0,0.0,48,0.00,CLR,OVC,0.00,WeatherDisplay:10.37,2013-04-13 01:13:00,
2013-04-12 21:18:00,26.4,9.4,28.14,NNW,329,0.0,0.0,48,0.00,CLR,OVC,0.00,WeatherDisplay:10.37,2013-04-13 01:18:00,
2013-04-12 21:23:00,26.2,9.2,28.14,NNW,329,0.0,0.0,48,0.00,CLR,OVC,0.00,WeatherDisplay:10.37,2013-04-13 01:23:00,
2013-04-12 21:28:00,26.1,9.5,28.14,NNW,329,0.0,0.0,49,0.00,CLR,OVC,0.00,WeatherDisplay:10.37,2013-04-13 01:28:00,
2013-04-12 21:33:00,26.1,9.9,28.14,NNW,329,0.0,0.0,50,0.00,CLR,OVC,0.00,WeatherDisplay:10.37,2013-04-13 01:33:00,
2013-04-12 21:38:00,26.1,10.4,28.14,NNW,329,0.0,0.0,51,0.00,CLR,OVC,0.00,WeatherDisplay:10.37,2013-04-13 01:38:00,
2013-04-12 21:43:00,26.1,10.4,28.14,NNW,329,0.0,0.0,51,0.00,CLR,OVC,0.00,WeatherDisplay:10.37,2013-04-13 01:43:00,
2013-04-12 21:48:00,26.1,10.4,28.14,NNW,329,0.0,0.0,51,0.00,CLR,OVC,0.00,WeatherDisplay:10.37,2013-04-13 01:48:00,
2013-04-12 21:53:00,26.1,10.8,28.14,NNW,329,0.0,0.0,52,0.00,CLR,OVC,0.00,WeatherDisplay:10.37,2013-04-13 01:53:00,
2013-04-12 21:58:00,26.1,10.8,28.14,NNW,329,0.0,0.0,52,0.00,CLR,OVC,0.00,WeatherDisplay:10.37,2013-04-13 01:58:00,
2013-04-12 22:03:00,26.1,11.2,28.14,NNW,329,0.0,0.0,53,0.00,CLR,OVC,0.00,WeatherDisplay:10.37,2013-04-13 02:03:00,
2013-04-12 22:08:00,26.1,11.2,28.14,NNW,329,0.0,0.0,53,0.00,CLR,OVC,0.00,WeatherDisplay:10.37,2013-04-13 02:08:00,
2013-04-12 22:13:00,26.1,11.2,28.14,NNW,329,0.0,0.0,53,0.00,CLR,OVC,0.00,WeatherDisplay:10.37,2013-04-13 02:13:00,
2013-04-12 22:18:00,25.9,11.1,28.14,NNW,329,0.0,0.0,53,0.00,CLR,OVC,0.00,WeatherDisplay:10.37,2013-04-13 02:18:00,
2013-04-12 22:23:00,25.9,11.1,28.14,NNW,329,0.0,0.0,53,0.00,CLR,OVC,0.00,WeatherDisplay:10.37,2013-04-13 02:23:00,
2013-04-12 22:28:00,25.7,11.3,28.14,NNW,329,0.0,0.0,54,0.00,CLR,OVC,0.00,WeatherDisplay:10.37,2013-04-13 02:28:00,
2013-04-12 22:33:00,25.5,11.2,28.14,NNW,329,0.0,0.0,54,0.00,CLR,OVC,0.00,WeatherDisplay:10.37,2013-04-13 02:33:00,
2013-04-12 22:38:00,25.2,10.8,28.14,NNW,329,0.0,0.0,54,0.00,CLR,OVC,0.00,WeatherDisplay:10.37,2013-04-13 02:38:00,
2013-04-12 22:43:00,25.0,10.7,28.14,NNW,329,0.0,0.0,54,0.00,CLR,OVC,0.00,WeatherDisplay:10.37,2013-04-13 02:43:00,
2013-04-12 22:48:00,25.0,10.7,28.14,NNW,329,0.0,0.0,54,0.00,CLR,OVC,0.00,WeatherDisplay:10.37,2013-04-13 02:48:00,
2013-04-12 22:53:00,24.6,10.3,28.14,NNW,329,0.0,0.0,54,0.00,CLR,OVC,0.00,WeatherDisplay:10.37,2013-04-13 02:53:00,
2013-04-12 22:58:00,24.1,9.4,28.14,NNW,329,0.0,0.0,53,0.00,CLR,OVC,0.00,WeatherDisplay:10.37,2013-04-13 02:58:00,
2013-04-12 23:03:00,23.5,9.3,28.14,NNW,329,0.0,0.0,54,0.00,CLR,OVC,0.00,WeatherDisplay:10.37,2013-04-13 03:03:00,
2013-04-12 23:08:00,22.8,8.2,28.14,NNW,329,0.0,0.0,53,0.00,CLR,OVC,0.00,WeatherDisplay:10.37,2013-04-13 03:08:00,
2013-04-12 23:13:00,22.3,7.7,28.14,NNW,329,0.0,0.0,53,0.00,CLR,OVC,0.00,WeatherDisplay:10.37,2013-04-13 03:13:00,
2013-04-12 23:18:00,21.6,7.0,28.14,NNW,329,0.0,0.0,53,0.00,CLR,OVC,0.00,WeatherDisplay:10.37,2013-04-13 03:18:00,
2013-04-12 23:23:00,21.0,6.5,28.14,NNW,329,0.0,0.0,53,0.00,CLR,OVC,0.00,WeatherDisplay:10.37,2013-04-13 03:23:00,
2013-04-12 23:28:00,20.3,5.9,28.14,NNW,329,0.0,0.0,53,0.00,CLR,OVC,0.00,WeatherDisplay:10.37,2013-04-13 03:28:00,
2013-04-12 23:33:00,19.9,5.5,28.14,NNW,329,0.0,0.0,53,0.00,CLR,OVC,0.00,WeatherDisplay:10.37,2013-04-13 03:33:00,
2013-04-12 23:38:00,19.4,5.0,28.14,NNW,329,0.0,0.0,53,0.00,CLR,OVC,0.00,WeatherDisplay:10.37,2013-04-13 03:38:00,
2013-04-12 23:43:00,18.9,4.5,28.14,NNW,329,0.0,0.0,53,0.00,CLR,OVC,0.00,WeatherDisplay:10.37,2013-04-13 03:43:00,
2013-04-12 23:48:00,18.5,4.6,28.14,NNW,329,0.0,0.0,54,0.00,CLR,OVC,0.00,WeatherDisplay:10.37,2013-04-13 03:48:00,
2013-04-12 23:53:00,18.1,4.3,28.14,NNW,329,0.0,0.0,54,0.00,CLR,OVC,0.00,WeatherDisplay:10.37,2013-04-13 03:53:00,
2013-04-12 23:58:00,18.0,4.1,28.14,NNW,329,0.0,0.0,54,0.00,CLR,OVC,0.00,WeatherDisplay:10.37,2013-04-13 03:58:00,